createdAt,value
2015-10-25T00:00:52.511Z,89
2015-10-25T00:01:51.230Z,89
2015-10-25T00:02:49.982Z,89
2015-10-25T00:06:47.853Z,89
2015-10-25T00:08:48.312Z,89
2015-10-25T00:09:43.986Z,89
2015-10-25T00:10:42.707Z,89
2015-10-25T00:11:41.428Z,89
2015-10-25T00:12:40.182Z,90
2015-10-25T00:13:41.918Z,90
2015-10-25T00:14:40.640Z,90
2015-10-25T00:16:38.067Z,90
2015-10-25T00:17:36.773Z,90
2015-10-25T00:18:35.479Z,90
2015-10-25T00:19:34.185Z,90
2015-10-25T00:20:32.907Z,90
2015-10-25T00:21:31.612Z,90
2015-10-25T00:22:30.381Z,90
2015-10-25T00:23:32.133Z,90
2015-10-25T00:24:30.840Z,90
2015-10-25T00:25:29.562Z,90
2015-10-25T00:26:28.266Z,90
2015-10-25T00:27:26.989Z,90
2015-10-25T00:28:25.695Z,90
2015-10-25T00:29:24.401Z,90
2015-10-25T00:30:23.122Z,90
2015-10-25T00:31:21.825Z,90
2015-10-25T00:32:20.609Z,90
2015-10-25T00:33:22.330Z,90
2015-10-25T00:34:21.052Z,90
2015-10-25T00:36:18.479Z,90
2015-10-25T00:37:17.186Z,90
2015-10-25T00:38:15.901Z,90
2015-10-25T00:40:13.286Z,90
2015-10-25T00:41:11.992Z,90
2015-10-25T00:42:10.746Z,90
2015-10-25T00:43:12.459Z,90
2015-10-25T00:44:11.174Z,90
2015-10-25T00:45:09.907Z,90
2015-10-25T00:47:07.292Z,90
2015-10-25T00:48:05.996Z,90
2015-10-25T00:49:04.715Z,90
2015-10-25T00:50:03.419Z,90
2015-10-25T00:51:02.124Z,90
2015-10-25T00:52:00.890Z,90
2015-10-25T00:53:02.627Z,90
2015-10-25T00:54:01.332Z,90
2015-10-25T00:55:00.052Z,90
2015-10-25T00:55:58.758Z,90
2015-10-25T00:56:57.463Z,90
2015-10-25T00:57:56.197Z,90
2015-10-25T00:58:54.902Z,90
2015-10-25T00:59:53.607Z,90
2015-10-25T01:00:52.313Z,90
2015-10-25T01:01:51.097Z,90
2015-10-25T01:02:52.817Z,90
2015-10-25T01:03:51.525Z,90
2015-10-25T01:05:48.951Z,90
2015-10-25T01:08:45.069Z,90
2015-10-25T01:09:43.791Z,90
2015-10-25T01:10:45.528Z,90
2015-10-25T01:11:41.281Z,90
2015-10-25T01:12:46.033Z,90
2015-10-25T01:13:41.707Z,90
2015-10-25T01:14:40.414Z,90
2015-10-25T01:15:39.119Z,90
2015-10-25T01:16:37.841Z,90
2015-10-25T01:17:36.546Z,89
2015-10-25T01:18:35.003Z,90
2015-10-25T01:19:33.708Z,89
2015-10-25T01:20:32.164Z,89
2015-10-25T01:21:30.666Z,89
2015-10-25T01:22:32.405Z,89
2015-10-25T01:23:30.875Z,90
2015-10-25T01:24:29.563Z,89
2015-10-25T01:25:28.019Z,89
2015-10-25T01:26:26.475Z,89
2015-10-25T01:27:24.930Z,89
2015-10-25T01:28:23.386Z,89
2015-10-25T01:29:21.827Z,89
2015-10-25T01:30:20.282Z,89
2015-10-25T01:32:20.538Z,89
2015-10-25T01:33:18.979Z,89
2015-10-25T01:34:17.435Z,89
2015-10-25T01:36:14.346Z,89
2015-10-25T01:41:06.657Z,89
2015-10-25T01:42:08.409Z,89
2015-10-25T01:43:06.849Z,89
2015-10-25T01:44:05.304Z,89
2015-10-25T01:45:03.762Z,89
2015-10-25T01:46:02.201Z,89
2015-10-25T01:47:00.657Z,89
2015-10-25T01:47:59.113Z,89
2015-10-25T01:48:57.568Z,89
2015-10-25T01:49:56.022Z,89
2015-10-25T01:50:54.541Z,90
2015-10-25T01:51:56.262Z,90
2015-10-25T01:52:54.968Z,90
2015-10-25T01:53:53.690Z,90
2015-10-25T01:54:52.396Z,90
2015-10-25T01:55:51.101Z,90
2015-10-25T01:56:49.822Z,90
2015-10-25T01:57:48.529Z,90
2015-10-25T01:58:47.235Z,90
2015-10-25T01:59:45.956Z,90
2015-10-25T02:00:44.709Z,90
2015-10-25T02:01:46.446Z,90
2015-10-25T02:02:45.151Z,90
2015-10-25T02:03:43.873Z,90
2015-10-25T02:04:42.579Z,90
2015-10-25T02:05:41.284Z,90
2015-10-25T02:06:40.022Z,90
2015-10-25T02:07:38.712Z,90
2015-10-25T02:08:37.417Z,90
2015-10-25T02:09:36.124Z,90
2015-10-25T02:10:34.893Z,90
2015-10-25T02:11:36.645Z,90
2015-10-25T02:12:35.351Z,90
2015-10-25T02:13:34.056Z,90
2015-10-25T02:14:32.762Z,90
2015-10-25T02:15:31.481Z,90
2015-10-25T02:16:30.172Z,90
2015-10-25T02:17:28.909Z,90
2015-10-25T02:18:27.599Z,90
2015-10-25T02:19:26.306Z,90
2015-10-25T02:20:25.073Z,90
2015-10-25T02:21:26.811Z,90
2015-10-25T02:22:25.516Z,90
2015-10-25T02:23:24.222Z,90
2015-10-25T02:24:22.944Z,90
2015-10-25T02:25:21.650Z,90
2015-10-25T02:26:20.355Z,90
2015-10-25T02:28:17.783Z,90
2015-10-25T02:29:16.489Z,90
2015-10-25T02:30:15.241Z,90
2015-10-25T02:31:16.978Z,90
2015-10-25T02:32:15.700Z,90
2015-10-25T02:33:14.390Z,90
2015-10-25T02:34:13.111Z,90
2015-10-25T02:36:10.555Z,90
2015-10-25T02:37:09.229Z,90
2015-10-25T02:38:07.950Z,90
2015-10-25T02:39:06.657Z,90
2015-10-25T02:40:05.425Z,90
2015-10-25T02:41:07.147Z,90
2015-10-25T02:42:05.868Z,90
2015-10-25T02:43:04.586Z,90
2015-10-25T02:44:03.277Z,90
2015-10-25T02:45:01.982Z,90
2015-10-25T02:46:59.410Z,90
2015-10-25T02:47:58.147Z,90
2015-10-25T02:48:56.822Z,90
2015-10-25T02:49:55.591Z,90
2015-10-25T02:50:57.327Z,90
2015-10-25T02:51:56.033Z,90
2015-10-25T02:52:54.739Z,90
2015-10-25T02:53:53.477Z,90
2015-10-25T02:54:52.166Z,90
2015-10-25T02:55:50.888Z,90
2015-10-25T02:56:49.594Z,90
2015-10-25T02:57:48.285Z,90
2015-10-25T02:58:47.005Z,90
2015-10-25T02:59:45.775Z,90
2015-10-25T03:00:47.496Z,90
2015-10-25T03:01:46.217Z,90
2015-10-25T03:02:44.923Z,90
2015-10-25T03:03:43.644Z,90
2015-10-25T03:04:42.335Z,90
2015-10-25T03:05:41.041Z,90
2015-10-25T03:06:39.747Z,90
2015-10-25T03:07:38.466Z,90
2015-10-25T03:08:37.171Z,90
2015-10-25T03:09:35.940Z,90
2015-10-25T03:10:37.660Z,90
2015-10-25T03:11:36.368Z,90
2015-10-25T03:12:35.088Z,90
2015-10-25T03:13:33.794Z,90
2015-10-25T03:14:32.501Z,90
2015-10-25T03:15:31.206Z,90
2015-10-25T03:16:29.927Z,90
2015-10-25T03:17:28.634Z,90
2015-10-25T03:18:27.339Z,90
2015-10-25T03:19:26.123Z,90
2015-10-25T03:20:27.845Z,90
2015-10-25T03:21:26.801Z,90
2015-10-25T03:22:25.773Z,90
2015-10-25T03:23:24.743Z,90
2015-10-25T03:25:22.420Z,90
2015-10-25T03:26:21.393Z,90
2015-10-25T03:27:20.364Z,90
2015-10-25T03:28:19.320Z,90
2015-10-25T03:29:18.338Z,90
2015-10-25T03:30:20.075Z,90
2015-10-25T03:31:19.047Z,90
2015-10-25T03:32:18.003Z,90
2015-10-25T03:33:16.973Z,90
2015-10-25T03:34:15.946Z,90
2015-10-25T03:35:14.901Z,90
2015-10-25T03:36:13.873Z,90
2015-10-25T03:37:12.844Z,90
2015-10-25T03:38:11.800Z,90
2015-10-25T03:39:10.831Z,90
2015-10-25T03:40:12.556Z,90
2015-10-25T03:41:11.525Z,90
2015-10-25T03:42:10.495Z,90
2015-10-25T03:43:09.483Z,90
2015-10-25T03:45:07.395Z,90
2015-10-25T03:47:08.104Z,90
2015-10-25T03:48:04.028Z,90
2015-10-25T03:49:03.047Z,90
2015-10-25T03:52:02.461Z,90
2015-10-25T03:53:01.167Z,90
2015-10-25T03:53:59.872Z,90
2015-10-25T03:54:58.844Z,90
2015-10-25T03:55:57.550Z,90
2015-10-25T03:56:56.256Z,90
2015-10-25T03:57:55.227Z,90
2015-10-25T03:58:53.996Z,90
2015-10-25T03:59:55.733Z,90
2015-10-25T04:00:54.439Z,90
2015-10-25T04:01:53.145Z,90
2015-10-25T04:02:51.850Z,90
2015-10-25T04:03:50.571Z,90
2015-10-25T04:06:46.689Z,90
2015-10-25T04:07:45.411Z,90
2015-10-25T04:09:45.883Z,90
2015-10-25T04:10:44.604Z,90
2015-10-25T04:11:43.309Z,90
2015-10-25T04:12:42.016Z,90
2015-10-25T04:13:40.971Z,90
2015-10-25T04:14:39.677Z,90
2015-10-25T04:15:38.165Z,90
2015-10-25T04:16:36.855Z,90
2015-10-25T04:17:35.561Z,90
2015-10-25T04:19:36.066Z,90
2015-10-25T04:20:34.772Z,90
2015-10-25T04:21:33.478Z,90
2015-10-25T04:22:32.200Z,90
2015-10-25T04:23:30.905Z,90
2015-10-25T04:25:28.317Z,89
2015-10-25T04:28:23.731Z,89
2015-10-25T04:30:24.518Z,89
2015-10-25T04:33:19.273Z,89
2015-10-25T04:34:17.714Z,89
2015-10-25T04:35:20.029Z,89
2015-10-25T04:36:22.313Z,89
2015-10-25T04:37:24.613Z,89
2015-10-25T04:38:26.975Z,89
2015-10-25T04:39:28.696Z,89
2015-10-25T04:40:30.999Z,89
2015-10-25T04:41:33.299Z,89
2015-10-25T04:42:35.599Z,89
2015-10-25T04:43:37.898Z,89
2015-10-25T04:45:42.497Z,89
2015-10-25T04:46:44.781Z,89
2015-10-25T04:47:47.096Z,89
2015-10-25T04:48:49.443Z,89
2015-10-25T04:49:51.179Z,89
2015-10-25T04:50:53.479Z,89
2015-10-25T04:51:55.764Z,89
2015-10-25T04:52:58.062Z,89
2015-10-25T04:54:00.362Z,89
2015-10-25T04:55:02.662Z,89
2015-10-25T04:56:04.962Z,89
2015-10-25T04:57:07.262Z,89
2015-10-25T04:58:09.561Z,89
2015-10-25T04:59:11.908Z,89
2015-10-25T05:00:13.645Z,89
2015-10-25T05:01:15.945Z,89
2015-10-25T05:02:18.245Z,89
2015-10-25T05:03:20.528Z,89
2015-10-25T05:04:22.828Z,89
2015-10-25T05:05:25.128Z,89
2015-10-25T05:06:27.428Z,89
2015-10-25T05:08:32.010Z,89
2015-10-25T05:09:34.122Z,89
2015-10-25T05:10:35.844Z,89
2015-10-25T05:11:37.894Z,89
2015-10-25T05:12:39.928Z,89
2015-10-25T05:13:41.978Z,89
2015-10-25T05:14:44.027Z,88
2015-10-25T05:15:45.811Z,88
2015-10-25T05:16:47.595Z,88
2015-10-25T05:17:49.378Z,88
2015-10-25T05:18:51.178Z,88
2015-10-25T05:19:53.009Z,88
2015-10-25T05:20:54.731Z,88
2015-10-25T05:21:56.515Z,88
2015-10-25T05:22:58.299Z,88
2015-10-25T05:24:00.099Z,88
2015-10-25T05:26:03.683Z,88
2015-10-25T05:27:05.450Z,88
2015-10-25T05:28:07.235Z,88
2015-10-25T05:29:09.019Z,88
2015-10-25T05:30:10.849Z,88
2015-10-25T05:31:12.603Z,88
2015-10-25T05:32:14.371Z,88
2015-10-25T05:33:16.155Z,88
2015-10-25T05:34:17.938Z,88
2015-10-25T05:35:19.722Z,88
2015-10-25T05:36:21.506Z,88
2015-10-25T05:37:23.305Z,88
2015-10-25T05:38:25.075Z,88
2015-10-25T05:39:26.858Z,88
2015-10-25T05:40:28.689Z,88
2015-10-25T05:42:32.194Z,88
2015-10-25T05:43:33.980Z,88
2015-10-25T05:44:35.763Z,88
2015-10-25T05:46:39.331Z,88
2015-10-25T05:47:40.849Z,88
2015-10-25T05:48:42.383Z,88
2015-10-25T05:49:43.917Z,88
2015-10-25T05:50:45.498Z,88
2015-10-25T05:51:47.219Z,88
2015-10-25T05:52:48.754Z,88
2015-10-25T05:53:50.288Z,88
2015-10-25T05:54:51.806Z,88
2015-10-25T05:55:53.340Z,88
2015-10-25T05:56:54.858Z,88
2015-10-25T05:57:56.393Z,88
2015-10-25T05:58:57.910Z,88
2015-10-25T05:59:59.445Z,88
2015-10-25T06:01:01.041Z,88
2015-10-25T06:02:02.747Z,88
2015-10-25T06:03:04.016Z,88
2015-10-25T06:04:05.299Z,88
2015-10-25T06:05:06.567Z,88
2015-10-25T06:06:07.837Z,88
2015-10-25T06:07:09.104Z,88
2015-10-25T06:08:10.374Z,88
2015-10-25T06:10:12.909Z,88
2015-10-25T06:11:14.241Z,88
2015-10-25T06:12:15.962Z,88
2015-10-25T06:13:17.246Z,88
2015-10-25T06:15:19.782Z,88
2015-10-25T06:16:21.067Z,88
2015-10-25T06:18:23.604Z,88
2015-10-25T06:19:24.873Z,88
2015-10-25T06:20:26.140Z,88
2015-10-25T06:21:27.470Z,88
2015-10-25T06:22:29.192Z,87
2015-10-25T06:23:30.211Z,87
2015-10-25T06:26:33.250Z,87
2015-10-25T06:27:34.269Z,87
2015-10-25T06:28:35.272Z,87
2015-10-25T06:29:36.289Z,87
2015-10-25T06:30:37.309Z,87
2015-10-25T06:31:38.374Z,87
2015-10-25T06:32:40.095Z,87
2015-10-25T06:33:41.114Z,87
2015-10-25T06:34:41.881Z,87
2015-10-25T06:35:42.635Z,87
2015-10-25T06:36:43.387Z,87
2015-10-25T06:37:44.156Z,87
2015-10-25T06:38:44.924Z,87
2015-10-25T06:40:46.430Z,87
2015-10-25T06:41:47.245Z,87
2015-10-25T06:42:48.950Z,87
2015-10-25T06:43:49.719Z,87
2015-10-25T06:44:50.472Z,87
2015-10-25T06:45:51.240Z,87
2015-10-25T06:46:51.992Z,87
2015-10-25T06:47:52.745Z,87
2015-10-25T06:48:53.514Z,87
2015-10-25T06:49:54.267Z,87
2015-10-25T06:50:55.019Z,87
2015-10-25T06:51:55.835Z,87
2015-10-25T06:52:57.572Z,87
2015-10-25T06:53:58.325Z,87
2015-10-25T06:54:59.078Z,87
2015-10-25T06:55:59.831Z,87
2015-10-25T06:57:00.598Z,87
2015-10-25T06:58:01.352Z,87
2015-10-25T06:59:02.104Z,87
2015-10-25T07:00:02.872Z,87
2015-10-25T07:01:03.625Z,87
2015-10-25T07:02:04.455Z,87
2015-10-25T07:03:06.162Z,87
2015-10-25T07:04:06.914Z,87
2015-10-25T07:05:07.683Z,87
2015-10-25T07:06:08.436Z,87
2015-10-25T07:08:09.956Z,87
2015-10-25T07:10:10.947Z,87
2015-10-25T07:11:11.449Z,87
2015-10-25T07:13:13.736Z,87
2015-10-25T07:14:14.239Z,87
2015-10-25T07:15:14.726Z,87
2015-10-25T07:16:15.229Z,87
2015-10-25T07:17:15.732Z,86
2015-10-25T07:19:16.221Z,86
2015-10-25T07:20:16.458Z,86
2015-10-25T07:21:16.711Z,86
2015-10-25T07:22:17.011Z,86
2015-10-25T07:23:18.749Z,86
2015-10-25T07:24:18.985Z,86
2015-10-25T07:25:19.222Z,86
2015-10-25T07:26:19.460Z,86
2015-10-25T07:27:19.713Z,86
2015-10-25T07:28:19.949Z,86
2015-10-25T07:30:20.174Z,86
2015-10-25T07:31:20.410Z,86
2015-10-25T07:32:20.726Z,86
2015-10-25T07:33:22.432Z,86
2015-10-25T07:34:22.684Z,86
2015-10-25T07:36:22.643Z,86
2015-10-25T07:37:22.646Z,86
2015-10-25T07:38:22.633Z,86
2015-10-25T07:39:22.354Z,86
2015-10-25T07:40:22.092Z,86
2015-10-25T07:41:21.376Z,86
2015-10-25T07:42:21.613Z,86
2015-10-25T07:43:23.334Z,86
2015-10-25T07:44:23.071Z,86
2015-10-25T07:45:22.793Z,85
2015-10-25T07:46:22.262Z,85
2015-10-25T07:47:21.748Z,85
2015-10-25T07:48:20.970Z,85
2015-10-25T07:49:20.176Z,85
2015-10-25T07:51:18.620Z,85
2015-10-25T07:52:17.887Z,85
2015-10-25T07:53:19.609Z,85
2015-10-25T07:54:18.564Z,85
2015-10-25T07:55:17.786Z,85
2015-10-25T07:56:17.008Z,85
2015-10-25T07:57:16.229Z,85
2015-10-25T07:58:15.434Z,85
2015-10-25T07:59:14.391Z,84
2015-10-25T08:00:13.080Z,84
2015-10-25T08:01:11.787Z,84
2015-10-25T08:02:10.556Z,84
2015-10-25T08:03:12.277Z,84
2015-10-25T08:04:10.983Z,84
2015-10-25T08:05:09.704Z,84
2015-10-25T08:06:08.128Z,84
2015-10-25T08:07:10.413Z,84
2015-10-25T08:08:12.837Z,84
2015-10-25T08:09:14.981Z,84
2015-10-25T08:10:17.280Z,84
2015-10-25T08:11:19.564Z,84
2015-10-25T08:12:21.927Z,84
2015-10-25T08:15:28.216Z,84
2015-10-25T08:16:30.500Z,84
2015-10-25T08:17:32.783Z,83
2015-10-25T08:18:34.819Z,83
2015-10-25T08:19:36.587Z,83
2015-10-25T08:20:38.370Z,83
2015-10-25T08:21:40.139Z,82
2015-10-25T08:22:41.720Z,82
2015-10-25T08:23:43.441Z,82
2015-10-25T08:24:44.959Z,82
2015-10-25T08:25:46.477Z,83
2015-10-25T08:26:48.247Z,83
2015-10-25T08:27:50.030Z,83
2015-10-25T08:28:51.830Z,83
2015-10-25T08:29:53.583Z,82
2015-10-25T08:30:55.085Z,82
2015-10-25T08:31:56.635Z,82
2015-10-25T08:32:58.185Z,82
2015-10-25T08:33:59.922Z,82
2015-10-25T08:35:01.175Z,82
2015-10-25T08:36:02.428Z,82
2015-10-25T08:38:04.964Z,82
2015-10-25T08:39:06.232Z,82
2015-10-25T08:40:07.765Z,82
2015-10-25T08:41:09.269Z,82
2015-10-25T08:42:10.787Z,82
2015-10-25T08:43:12.368Z,82
2015-10-25T08:44:14.074Z,82
2015-10-25T08:46:16.345Z,82
2015-10-25T08:47:17.521Z,82
2015-10-25T08:48:18.398Z,82
2015-10-25T08:49:19.368Z,82
2015-10-25T08:52:22.393Z,82
2015-10-25T08:53:23.474Z,82
2015-10-25T08:54:25.164Z,82
2015-10-25T08:55:26.604Z,82
2015-10-25T08:56:27.685Z,82
2015-10-25T08:57:28.719Z,81
2015-10-25T08:59:30.646Z,81
2015-10-25T09:00:31.212Z,81
2015-10-25T09:01:31.949Z,81
2015-10-25T09:02:32.686Z,81
2015-10-25T09:03:33.501Z,81
2015-10-25T09:04:35.223Z,81
2015-10-25T09:05:35.710Z,81
2015-10-25T09:06:35.931Z,81
2015-10-25T09:07:36.169Z,81
2015-10-25T09:08:36.406Z,81
2015-10-25T09:09:36.643Z,81
2015-10-25T09:10:36.880Z,81
2015-10-25T09:11:37.101Z,81
2015-10-25T09:12:37.339Z,81
2015-10-25T09:13:37.654Z,81
2015-10-25T09:14:39.344Z,81
2015-10-25T09:15:39.581Z,81
2015-10-25T09:16:40.084Z,81
2015-10-25T09:17:40.571Z,81
2015-10-25T09:18:40.809Z,81
2015-10-25T09:19:41.045Z,81
2015-10-25T09:20:41.282Z,81
2015-10-25T09:21:41.753Z,82
2015-10-25T09:22:42.506Z,82
2015-10-25T09:23:43.306Z,82
2015-10-25T09:24:45.028Z,81
2015-10-25T09:25:45.514Z,81
2015-10-25T09:26:46.017Z,81
2015-10-25T09:27:46.520Z,81
2015-10-25T09:30:47.982Z,81
2015-10-25T09:31:48.469Z,81
2015-10-25T09:32:48.956Z,81
2015-10-25T09:33:49.256Z,81
2015-10-25T09:34:50.962Z,81
2015-10-25T09:35:51.199Z,81
2015-10-25T09:36:51.451Z,81
2015-10-25T09:37:51.658Z,81
2015-10-25T09:38:51.894Z,81
2015-10-25T09:39:52.116Z,81
2015-10-25T09:40:52.619Z,81
2015-10-25T09:41:53.106Z,81
2015-10-25T09:42:53.593Z,81
2015-10-25T09:44:55.829Z,81
2015-10-25T09:45:56.318Z,81
2015-10-25T09:46:56.543Z,81
2015-10-25T09:47:57.001Z,81
2015-10-25T09:49:58.245Z,82
2015-10-25T09:50:58.977Z,82
2015-10-25T09:51:59.709Z,81
2015-10-25T09:53:00.192Z,82
2015-10-25T09:54:01.003Z,82
2015-10-25T09:55:02.708Z,82
2015-10-25T09:56:03.459Z,82
2015-10-25T09:57:04.211Z,82
2015-10-25T09:58:04.947Z,82
2015-10-25T09:59:05.698Z,82
2015-10-25T10:01:07.186Z,82
2015-10-25T10:02:07.922Z,82
2015-10-25T10:03:08.674Z,82
2015-10-25T10:04:09.489Z,82
2015-10-25T10:05:11.196Z,82
2015-10-25T10:06:11.932Z,82
2015-10-25T10:07:12.685Z,82
2015-10-25T10:08:13.437Z,82
2015-10-25T10:09:14.175Z,82
2015-10-25T10:10:14.928Z,82
2015-10-25T10:12:16.495Z,82
2015-10-25T10:13:17.170Z,82
2015-10-25T10:14:17.970Z,82
2015-10-25T10:15:19.692Z,82
2015-10-25T10:16:20.445Z,82
2015-10-25T10:17:21.181Z,82
2015-10-25T10:18:21.934Z,82
2015-10-25T10:19:22.656Z,82
2015-10-25T10:20:23.658Z,82
2015-10-25T10:21:24.661Z,82
2015-10-25T10:22:25.414Z,82
2015-10-25T10:23:26.401Z,82
2015-10-25T10:24:27.451Z,82
2015-10-25T10:25:29.188Z,82
2015-10-25T10:26:29.940Z,82
2015-10-25T10:27:30.677Z,82
2015-10-25T10:28:31.399Z,82
2015-10-25T10:30:33.170Z,82
2015-10-25T10:31:33.892Z,82
2015-10-25T10:32:34.644Z,82
2015-10-25T10:33:35.397Z,82
2015-10-25T10:34:36.196Z,82
2015-10-25T10:35:37.903Z,82
2015-10-25T10:39:40.882Z,82
2015-10-25T10:40:41.618Z,82
2015-10-25T10:41:42.357Z,82
2015-10-25T10:43:43.846Z,82
2015-10-25T10:44:44.646Z,82
2015-10-25T10:45:46.352Z,82
2015-10-25T10:46:47.105Z,82
2015-10-25T10:48:48.579Z,82
2015-10-25T10:49:49.315Z,81
2015-10-25T10:51:50.305Z,81
2015-10-25T10:52:50.792Z,82
2015-10-25T10:53:51.529Z,82
2015-10-25T10:54:52.329Z,82
2015-10-25T10:55:54.034Z,82
2015-10-25T10:56:54.725Z,82
2015-10-25T10:57:55.534Z,82
2015-10-25T10:58:56.271Z,82
2015-10-25T10:59:57.007Z,82
2015-10-25T11:00:57.744Z,82
2015-10-25T11:01:58.497Z,82
2015-10-25T11:02:59.235Z,82
2015-10-25T11:03:59.972Z,82
2015-10-25T11:05:00.772Z,82
2015-10-25T11:06:02.477Z,82
2015-10-25T11:07:03.465Z,82
2015-10-25T11:08:04.482Z,82
2015-10-25T11:09:05.220Z,82
2015-10-25T11:10:05.973Z,82
2015-10-25T11:11:06.818Z,82
2015-10-25T11:12:07.446Z,82
2015-10-25T11:13:08.199Z,82
2015-10-25T11:14:08.937Z,82
2015-10-25T11:15:09.736Z,82
2015-10-25T11:16:11.442Z,82
2015-10-25T11:17:12.179Z,82
2015-10-25T11:18:12.948Z,82
2015-10-25T11:19:13.669Z,82
2015-10-25T11:20:14.421Z,82
2015-10-25T11:21:15.159Z,82
2015-10-25T11:22:15.911Z,82
2015-10-25T11:23:16.649Z,82
2015-10-25T11:24:17.386Z,82
2015-10-25T11:25:18.201Z,82
2015-10-25T11:27:20.644Z,82
2015-10-25T11:28:21.397Z,82
2015-10-25T11:29:22.134Z,82
2015-10-25T11:30:22.886Z,82
2015-10-25T11:31:23.623Z,82
2015-10-25T11:32:24.361Z,82
2015-10-25T11:33:25.113Z,82
2015-10-25T11:34:25.850Z,82
2015-10-25T11:35:26.650Z,81
2015-10-25T11:36:28.356Z,82
2015-10-25T11:37:29.109Z,81
2015-10-25T11:38:29.611Z,81
2015-10-25T11:39:30.083Z,81
2015-10-25T11:40:30.555Z,81
2015-10-25T11:41:31.057Z,81
2015-10-25T11:42:31.528Z,81
2015-10-25T11:43:32.031Z,81
2015-10-25T11:44:32.503Z,81
2015-10-25T11:45:33.052Z,81
2015-10-25T11:46:34.774Z,81
2015-10-25T11:47:35.261Z,81
2015-10-25T11:48:35.747Z,81
2015-10-25T11:49:35.985Z,81
2015-10-25T11:50:36.206Z,81
2015-10-25T11:51:36.413Z,81
2015-10-25T11:52:36.649Z,81
2015-10-25T11:53:36.886Z,81
2015-10-25T11:54:36.857Z,81
2015-10-25T11:55:36.891Z,81
2015-10-25T11:56:38.597Z,81
2015-10-25T11:57:38.568Z,81
2015-10-25T11:58:38.790Z,81
2015-10-25T11:59:39.027Z,81
2015-10-25T12:00:39.248Z,81
2015-10-25T12:01:39.486Z,81
2015-10-25T12:02:39.707Z,81
2015-10-25T12:03:39.929Z,81
2015-10-25T12:04:40.165Z,81
2015-10-25T12:05:40.450Z,81
2015-10-25T12:06:42.187Z,81
2015-10-25T12:07:42.128Z,81
2015-10-25T12:08:42.098Z,81
2015-10-25T12:09:42.070Z,81
2015-10-25T12:10:42.057Z,81
2015-10-25T12:12:41.997Z,80
2015-10-25T12:13:41.906Z,80
2015-10-25T12:14:41.409Z,80
2015-10-25T12:15:41.177Z,80
2015-10-25T12:16:42.884Z,80
2015-10-25T12:17:42.605Z,80
2015-10-25T12:18:42.311Z,80
2015-10-25T12:20:41.222Z,80
2015-10-25T12:21:40.413Z,80
2015-10-25T12:22:39.900Z,80
2015-10-25T12:23:39.074Z,80
2015-10-25T12:24:38.264Z,80
2015-10-25T12:25:37.517Z,80
2015-10-25T12:26:39.223Z,80
2015-10-25T12:28:37.636Z,80
2015-10-25T12:29:36.825Z,80
2015-10-25T12:30:36.016Z,79
2015-10-25T12:31:34.956Z,79
2015-10-25T12:32:33.912Z,79
2015-10-25T12:33:32.836Z,79
2015-10-25T12:34:31.526Z,79
2015-10-25T12:35:30.279Z,79
2015-10-25T12:36:31.969Z,79
2015-10-25T12:37:30.674Z,79
2015-10-25T12:38:29.349Z,79
2015-10-25T12:39:28.040Z,78
2015-10-25T12:40:26.480Z,78
2015-10-25T12:41:24.904Z,79
2015-10-25T12:42:23.329Z,79
2015-10-25T12:43:21.769Z,78
2015-10-25T12:44:24.053Z,78
2015-10-25T12:45:26.399Z,78
2015-10-25T12:46:28.089Z,78
2015-10-25T12:47:30.373Z,78
2015-10-25T12:48:32.611Z,78
2015-10-25T12:49:34.629Z,77
2015-10-25T12:50:36.397Z,77
2015-10-25T12:51:38.150Z,77
2015-10-25T12:53:41.453Z,77
2015-10-25T12:54:42.908Z,77
2015-10-25T12:55:44.473Z,77
2015-10-25T12:56:46.178Z,77
2015-10-25T12:57:47.431Z,77
2015-10-25T12:58:48.669Z,77
2015-10-25T12:59:49.922Z,76
2015-10-25T13:03:54.808Z,76
2015-10-25T13:04:55.669Z,77
2015-10-25T13:05:56.953Z,76
2015-10-25T13:06:58.644Z,76
2015-10-25T13:07:59.647Z,76
2015-10-25T13:09:00.633Z,76
2015-10-25T13:10:02.045Z,76
2015-10-25T13:11:02.673Z,76
2015-10-25T13:12:03.613Z,76
2015-10-25T13:13:04.599Z,76
2015-10-25T13:14:05.602Z,76
2015-10-25T13:15:06.324Z,76
2015-10-25T13:16:07.124Z,76
2015-10-25T13:17:08.829Z,76
2015-10-25T13:18:09.817Z,76
2015-10-25T13:19:10.804Z,76
2015-10-25T13:20:11.791Z,76
2015-10-25T13:21:12.777Z,76
2015-10-25T13:22:13.780Z,76
2015-10-25T13:23:14.767Z,76
2015-10-25T13:24:15.770Z,76
2015-10-25T13:25:16.773Z,76
2015-10-25T13:26:17.807Z,76
2015-10-25T13:27:19.528Z,76
2015-10-25T13:28:20.514Z,76
2015-10-25T13:29:21.502Z,76
2015-10-25T13:31:23.492Z,76
2015-10-25T13:32:24.479Z,76
2015-10-25T13:33:25.466Z,76
2015-10-25T13:34:26.469Z,76
2015-10-25T13:35:27.222Z,76
2015-10-25T13:36:28.005Z,76
2015-10-25T13:37:29.727Z,76
2015-10-25T13:38:30.698Z,76
2015-10-25T13:39:31.989Z,76
2015-10-25T13:40:32.211Z,76
2015-10-25T13:41:33.418Z,76
2015-10-25T13:42:33.671Z,76
2015-10-25T13:43:34.391Z,76
2015-10-25T13:44:35.129Z,75
2015-10-25T13:45:35.615Z,75
2015-10-25T13:46:36.149Z,75
2015-10-25T13:47:37.855Z,76
2015-10-25T13:48:38.593Z,75
2015-10-25T13:49:39.079Z,75
2015-10-25T13:51:40.038Z,75
2015-10-25T13:52:40.509Z,75
2015-10-25T13:53:40.996Z,75
2015-10-25T13:54:41.218Z,75
2015-10-25T13:55:41.455Z,75
2015-10-25T13:56:41.723Z,75
2015-10-25T13:57:43.428Z,75
2015-10-25T13:58:43.651Z,75
2015-10-25T13:59:43.872Z,75
2015-10-25T14:00:44.109Z,75
2015-10-25T14:01:44.331Z,75
2015-10-25T14:02:44.553Z,75
2015-10-25T14:03:44.789Z,75
2015-10-25T14:04:44.947Z,75
2015-10-25T14:05:45.233Z,75
2015-10-25T14:06:45.516Z,75
2015-10-25T14:08:47.443Z,75
2015-10-25T14:09:47.680Z,75
2015-10-25T14:11:48.138Z,75
2015-10-25T14:12:48.344Z,75
2015-10-25T14:13:48.582Z,75
2015-10-25T14:14:48.803Z,75
2015-10-25T14:16:49.309Z,75
2015-10-25T14:17:51.001Z,75
2015-10-25T14:18:51.222Z,75
2015-10-25T14:20:51.680Z,75
2015-10-25T14:21:51.902Z,75
2015-10-25T14:22:52.123Z,75
2015-10-25T14:23:52.345Z,75
2015-10-25T14:24:52.567Z,75
2015-10-25T14:25:52.788Z,75
2015-10-25T14:26:53.086Z,75
2015-10-25T14:27:54.777Z,75
2015-10-25T14:28:54.999Z,75
2015-10-25T14:29:55.220Z,75
2015-10-25T14:30:55.269Z,75
2015-10-25T14:31:56.179Z,75
2015-10-25T14:33:56.888Z,75
2015-10-25T14:34:57.374Z,75
2015-10-25T14:35:57.861Z,75
2015-10-25T14:36:58.130Z,75
2015-10-25T14:37:59.836Z,75
2015-10-25T14:40:00.793Z,75
2015-10-25T14:41:01.281Z,75
2015-10-25T14:42:01.768Z,75
2015-10-25T14:43:01.974Z,75
2015-10-25T14:44:02.195Z,75
2015-10-25T14:47:05.488Z,75
2015-10-25T14:48:04.644Z,75
2015-10-25T14:49:05.115Z,75
2015-10-25T14:50:05.605Z,75
2015-10-25T14:52:06.564Z,75
2015-10-25T14:53:07.050Z,75
2015-10-25T14:54:07.537Z,75
2015-10-25T14:55:08.587Z,75
2015-10-25T14:56:08.481Z,75
2015-10-25T14:57:09.045Z,75
2015-10-25T14:58:10.752Z,75
2015-10-25T14:59:11.223Z,75
2015-10-25T15:02:11.887Z,75
2015-10-25T15:03:12.124Z,75
2015-10-25T15:04:12.330Z,75
2015-10-25T15:05:12.551Z,75
2015-10-25T15:06:12.851Z,75
2015-10-25T15:07:13.072Z,75
2015-10-25T15:08:14.779Z,75
2015-10-25T15:09:15.000Z,75
2015-10-25T15:10:15.237Z,75
2015-10-25T15:11:15.443Z,75
2015-10-25T15:12:15.680Z,75
2015-10-25T15:14:16.638Z,75
2015-10-25T15:15:17.126Z,75
2015-10-25T15:16:17.613Z,75
2015-10-25T15:17:18.162Z,75
2015-10-25T15:18:19.852Z,75
2015-10-25T15:19:20.339Z,75
2015-10-25T15:20:20.826Z,75
2015-10-25T15:21:21.563Z,75
2015-10-25T15:22:22.285Z,75
2015-10-25T15:23:23.022Z,75
2015-10-25T15:24:23.775Z,75
2015-10-25T15:25:24.528Z,75
2015-10-25T15:26:25.249Z,75
2015-10-25T15:27:26.033Z,75
2015-10-25T15:28:27.738Z,76
2015-10-25T15:29:28.835Z,76
2015-10-25T15:30:31.541Z,76
2015-10-25T15:31:30.730Z,76
2015-10-25T15:32:31.764Z,76
2015-10-25T15:33:32.752Z,76
2015-10-25T15:34:33.724Z,76
2015-10-25T15:35:34.727Z,76
2015-10-25T15:37:37.279Z,76
2015-10-25T15:38:38.986Z,76
2015-10-25T15:39:40.628Z,76
2015-10-25T15:40:41.725Z,76
2015-10-25T15:41:42.744Z,76
2015-10-25T15:42:43.997Z,76
2015-10-25T15:43:45.264Z,76
2015-10-25T15:44:46.501Z,77
2015-10-25T15:45:48.019Z,77
2015-10-25T15:46:49.522Z,77
2015-10-25T15:47:51.087Z,77
2015-10-25T15:48:52.808Z,77
2015-10-25T15:49:54.311Z,77
2015-10-25T15:50:56.079Z,77
2015-10-25T15:51:57.848Z,77
2015-10-25T15:52:59.616Z,77
2015-10-25T15:54:01.385Z,77
2015-10-25T15:55:03.154Z,77
2015-10-25T15:56:04.906Z,77
2015-10-25T15:57:06.674Z,77